createdAt,value
2022-11-01T00:00:29.504Z,14.66
2022-11-01T00:03:01.416Z,14.67
2022-11-01T00:05:33.165Z,14.64
2022-11-01T00:08:05.303Z,14.64
2022-11-01T00:10:37.167Z,14.66
2022-11-01T00:13:08.978Z,14.64
2022-11-01T00:15:40.772Z,14.64
2022-11-01T00:18:12.594Z,14.65
2022-11-01T00:20:45.149Z,14.67
2022-11-01T00:23:16.948Z,14.69
2022-11-01T00:25:48.774Z,14.69
2022-11-01T00:28:20.838Z,14.69
2022-11-01T00:30:54.060Z,14.70
2022-11-01T00:33:27.392Z,14.69
2022-11-01T00:36:02.662Z,14.70
2022-11-01T00:38:35.360Z,14.71
2022-11-01T00:41:07.686Z,14.72
2022-11-01T00:43:39.656Z,14.71
2022-11-01T00:46:11.467Z,14.71
2022-11-01T00:48:43.495Z,14.74
2022-11-01T00:51:15.561Z,14.76
2022-11-01T00:53:47.805Z,14.78
2022-11-01T00:56:19.806Z,14.80
2022-11-01T00:58:51.711Z,14.83
2022-11-01T01:01:23.625Z,14.84
2022-11-01T01:03:55.571Z,14.84
2022-11-01T01:06:27.376Z,14.84
2022-11-01T01:09:00.636Z,14.85
2022-11-01T01:11:32.887Z,14.85
2022-11-01T01:14:04.727Z,14.85
2022-11-01T01:16:36.681Z,14.85
2022-11-01T01:19:08.531Z,14.88
2022-11-01T01:21:40.306Z,14.89
2022-11-01T01:24:12.324Z,14.89
2022-11-01T01:26:44.083Z,14.93
2022-11-01T01:29:16.978Z,14.93
2022-11-01T01:31:50.769Z,14.96
2022-11-01T01:34:22.975Z,14.97
2022-11-01T01:36:54.760Z,15.00
2022-11-01T01:39:26.822Z,15.02
2022-11-01T01:41:58.799Z,15.02
2022-11-01T01:44:52.058Z,15.06
2022-11-01T01:47:25.848Z,15.08
2022-11-01T01:50:12.651Z,15.09
2022-11-01T01:52:57.479Z,15.09
2022-11-01T01:55:53.074Z,15.13
2022-11-01T01:58:29.208Z,15.11
2022-11-01T02:01:01.174Z,15.11
2022-11-01T02:03:34.288Z,15.12
2022-11-01T02:06:10.448Z,15.14
2022-11-01T02:08:44.866Z,15.16
2022-11-01T02:11:17.487Z,15.17
2022-11-01T02:13:50.260Z,15.19
2022-11-01T02:16:35.552Z,15.20
2022-11-01T02:19:19.565Z,15.23
2022-11-01T02:21:54.036Z,15.23
2022-11-01T02:24:45.065Z,15.24
2022-11-01T02:27:39.903Z,15.25
2022-11-01T02:30:12.896Z,15.25
2022-11-01T02:33:02.103Z,15.27
2022-11-01T02:35:39.604Z,15.28
2022-11-01T02:38:26.953Z,15.28
2022-11-01T02:41:03.805Z,15.30
2022-11-01T02:43:41.402Z,15.32
2022-11-01T02:46:32.765Z,15.33
2022-11-01T02:49:05.451Z,15.34
2022-11-01T02:51:37.931Z,15.35
2022-11-01T02:54:23.396Z,15.35
2022-11-01T02:57:06.333Z,15.36
2022-11-01T02:59:45.721Z,15.36
2022-11-01T03:02:39.289Z,15.37
2022-11-01T03:06:04.759Z,15.39
2022-11-01T03:09:07.233Z,15.41
2022-11-01T03:12:03.457Z,15.41
2022-11-01T03:14:52.067Z,15.45
2022-11-01T03:17:34.212Z,15.45
2022-11-01T03:20:09.580Z,15.48
2022-11-01T03:22:47.275Z,15.50
2022-11-01T03:25:43.056Z,15.50
2022-11-01T03:28:28.986Z,15.54
2022-11-01T03:31:08.930Z,15.55
2022-11-01T03:33:46.841Z,15.56
2022-11-01T03:36:20.034Z,15.58
2022-11-01T03:39:06.314Z,15.57
2022-11-01T03:41:42.514Z,15.60
2022-11-01T03:44:14.498Z,15.60
2022-11-01T03:46:46.695Z,15.62
2022-11-01T03:49:19.470Z,15.62
2022-11-01T03:51:51.295Z,15.62
2022-11-01T03:54:23.385Z,15.61
2022-11-01T03:56:55.782Z,15.62
2022-11-01T03:59:27.800Z,15.62
2022-11-01T04:02:00.045Z,15.62
2022-11-01T04:04:32.027Z,15.63
2022-11-01T04:07:04.045Z,15.65
2022-11-01T04:09:35.878Z,15.65
2022-11-01T04:12:07.890Z,15.65
2022-11-01T04:14:58.334Z,15.65
2022-11-01T04:17:48.796Z,15.66
2022-11-01T04:20:36.222Z,15.66
2022-11-01T04:23:08.173Z,15.64
2022-11-01T04:25:40.078Z,15.65
2022-11-01T04:28:11.957Z,15.61
2022-11-01T04:30:43.969Z,15.61
2022-11-01T04:33:15.861Z,15.61
2022-11-01T04:35:47.836Z,15.62
2022-11-01T04:38:19.682Z,15.63
2022-11-01T04:40:51.530Z,15.62
2022-11-01T04:43:23.386Z,15.61
2022-11-01T04:45:58.012Z,15.60
2022-11-01T04:48:29.960Z,15.60
2022-11-01T04:51:02.586Z,15.61
2022-11-01T04:53:34.966Z,15.60
2022-11-01T04:56:08.954Z,15.61
2022-11-01T04:58:44.957Z,15.60
2022-11-01T05:01:18.553Z,15.60
2022-11-01T05:03:50.682Z,15.61
2022-11-01T05:06:22.552Z,15.61
2022-11-01T05:08:54.655Z,15.61
2022-11-01T05:11:26.650Z,15.62
2022-11-01T05:13:58.535Z,15.63
2022-11-01T05:16:30.312Z,15.63
2022-11-01T05:19:02.139Z,15.65
2022-11-01T05:21:35.141Z,15.65
2022-11-01T05:24:07.509Z,15.68
2022-11-01T05:26:39.797Z,15.69
2022-11-01T05:29:24.539Z,15.69
2022-11-01T05:32:03.592Z,15.69
2022-11-01T05:34:35.465Z,15.71
2022-11-01T05:37:07.425Z,15.72
2022-11-01T05:39:39.282Z,15.72
2022-11-01T05:42:11.094Z,15.74
2022-11-01T05:44:42.957Z,15.75
2022-11-01T05:47:17.425Z,15.76
2022-11-01T05:49:49.687Z,15.78
2022-11-01T05:52:21.464Z,15.79
2022-11-01T05:54:53.487Z,15.80
2022-11-01T05:57:30.953Z,15.81
2022-11-01T06:00:06.455Z,15.81
2022-11-01T06:02:47.317Z,15.79
2022-11-01T06:05:19.234Z,15.82
2022-11-01T06:07:50.992Z,15.80
2022-11-01T06:10:22.825Z,15.79
2022-11-01T06:12:55.060Z,15.78
2022-11-01T06:15:26.992Z,15.77
2022-11-01T06:17:59.447Z,15.78
2022-11-01T06:20:32.328Z,15.77
2022-11-01T06:23:11.109Z,15.79
2022-11-01T06:25:43.050Z,15.78
2022-11-01T06:28:15.700Z,15.81
2022-11-01T06:30:47.659Z,15.84
2022-11-01T06:33:19.957Z,15.84
2022-11-01T06:35:51.940Z,15.84
2022-11-01T06:38:23.954Z,15.85
2022-11-01T06:40:56.007Z,15.86
2022-11-01T06:43:28.186Z,15.86
2022-11-01T06:46:00.961Z,15.86
2022-11-01T06:48:32.867Z,15.89
2022-11-01T06:51:05.091Z,15.91
2022-11-01T06:53:36.916Z,15.92
2022-11-01T06:56:08.914Z,15.95
2022-11-01T06:58:41.056Z,15.95
2022-11-01T07:01:13.070Z,15.94
2022-11-01T07:03:45.813Z,15.95
2022-11-01T07:06:18.448Z,15.98
2022-11-01T07:08:51.277Z,15.99
2022-11-01T07:11:27.413Z,16.01
2022-11-01T07:14:02.578Z,16.02
2022-11-01T07:16:34.457Z,16.04
2022-11-01T07:19:06.324Z,16.05
2022-11-01T07:21:38.206Z,16.05
2022-11-01T07:24:10.184Z,16.06
2022-11-01T07:26:41.984Z,16.07
2022-11-01T07:29:14.038Z,16.09
2022-11-01T07:31:46.469Z,16.13
2022-11-01T07:34:18.229Z,16.17
2022-11-01T07:36:52.765Z,16.18
2022-11-01T07:39:25.095Z,16.20
2022-11-01T07:41:58.654Z,16.22
2022-11-01T07:44:30.740Z,16.24
2022-11-01T07:47:02.617Z,16.28
2022-11-01T07:49:34.451Z,16.32
2022-11-01T07:52:06.369Z,16.36
2022-11-01T07:54:38.302Z,16.40
2022-11-01T07:57:10.248Z,16.46
2022-11-01T07:59:42.081Z,16.49
2022-11-01T08:02:14.226Z,16.50
2022-11-01T08:04:46.377Z,16.54
2022-11-01T08:07:18.280Z,16.57
2022-11-01T08:09:50.140Z,16.59
2022-11-01T08:12:22.214Z,16.61
2022-11-01T08:14:54.054Z,16.62
2022-11-01T08:17:25.897Z,16.63
2022-11-01T08:19:57.928Z,16.63
2022-11-01T08:22:29.925Z,16.64
2022-11-01T08:25:01.785Z,16.64
2022-11-01T08:27:34.598Z,16.68
2022-11-01T08:30:08.101Z,16.70
2022-11-01T08:32:40.023Z,16.72
2022-11-01T08:35:12.563Z,16.74
2022-11-01T08:37:51.558Z,16.76
2022-11-01T08:40:23.568Z,16.80
2022-11-01T08:42:55.791Z,16.84
2022-11-01T08:45:28.032Z,16.87
2022-11-01T08:48:05.052Z,16.90
2022-11-01T08:50:37.196Z,16.94
2022-11-01T08:53:12.170Z,16.99
2022-11-01T08:55:44.386Z,17.04
2022-11-01T08:58:16.375Z,17.10
2022-11-01T09:00:48.541Z,17.20
2022-11-01T09:03:20.477Z,17.30
2022-11-01T09:05:52.359Z,17.40
2022-11-01T09:08:24.329Z,17.48
2022-11-01T09:10:59.388Z,17.53
2022-11-01T09:13:31.314Z,17.61
2022-11-01T09:16:07.085Z,17.71
2022-11-01T09:18:39.160Z,17.80
2022-11-01T09:21:11.426Z,17.87
2022-11-01T09:23:43.444Z,17.94
2022-11-01T09:26:15.483Z,18.02
2022-11-01T09:28:47.306Z,18.11
2022-11-01T09:31:21.553Z,18.20
2022-11-01T09:33:55.501Z,18.23
2022-11-01T09:36:28.962Z,18.32
2022-11-01T09:39:00.858Z,18.40
2022-11-01T09:41:49.748Z,18.45
2022-11-01T09:44:27.024Z,18.49
2022-11-01T09:47:02.770Z,18.50
2022-11-01T09:49:40.071Z,18.54
2022-11-01T09:52:22.643Z,18.52
2022-11-01T09:54:54.619Z,18.53
2022-11-01T09:57:36.440Z,18.53
2022-11-01T10:00:21.550Z,18.49
2022-11-01T10:03:21.108Z,18.52
2022-11-01T10:06:13.559Z,18.50
2022-11-01T10:09:28.447Z,18.51
2022-11-01T10:12:09.655Z,18.49
2022-11-01T10:14:54.621Z,18.49
2022-11-01T10:17:42.784Z,18.50
2022-11-01T10:20:15.313Z,18.47
2022-11-01T10:22:50.903Z,18.46
2022-11-01T10:25:24.945Z,18.43
2022-11-01T10:28:09.190Z,18.40
2022-11-01T10:30:46.798Z,18.37
2022-11-01T10:33:28.155Z,18.36
2022-11-01T10:36:03.263Z,18.33
2022-11-01T10:41:44.892Z,18.34
2022-11-01T10:44:33.342Z,18.34
2022-11-01T10:47:07.138Z,18.38
2022-11-01T10:50:04.960Z,18.38
2022-11-01T10:52:42.779Z,18.38
2022-11-01T10:55:19.084Z,18.42
2022-11-01T10:58:05.348Z,18.38
2022-11-01T11:00:40.616Z,18.41
2022-11-01T11:03:25.067Z,18.44
2022-11-01T11:05:59.947Z,18.54
2022-11-01T11:08:32.105Z,18.66
2022-11-01T11:11:07.832Z,18.79
2022-11-01T11:13:42.140Z,18.96
2022-11-01T11:16:38.585Z,19.22
2022-11-01T11:19:23.808Z,19.77
2022-11-01T11:21:56.818Z,20.31
2022-11-01T11:24:28.573Z,20.80
2022-11-01T11:27:02.452Z,21.40
2022-11-01T11:29:49.090Z,21.94
2022-11-01T11:32:26.873Z,22.46
2022-11-01T11:35:17.050Z,23.02
2022-11-01T11:37:56.030Z,23.58
2022-11-01T11:40:40.676Z,23.77
2022-11-01T11:43:21.464Z,23.94
2022-11-01T11:46:13.706Z,24.53
2022-11-01T11:48:47.073Z,24.97
2022-11-01T11:51:20.808Z,25.46
2022-11-01T11:54:14.877Z,25.85
2022-11-01T11:56:48.039Z,26.20
2022-11-01T11:59:26.188Z,26.44
2022-11-01T12:02:00.947Z,26.53
2022-11-01T12:04:40.614Z,26.82
2022-11-01T12:07:37.922Z,26.37
2022-11-01T12:10:31.508Z,25.29
2022-11-01T12:13:21.486Z,24.18
2022-11-01T12:16:16.763Z,23.18
2022-11-01T12:18:56.683Z,22.60
2022-11-01T12:21:35.980Z,22.07
2022-11-01T12:24:10.622Z,21.67
2022-11-01T12:26:43.391Z,21.43
2022-11-01T12:29:39.334Z,21.20
2022-11-01T12:32:20.840Z,20.86
2022-11-01T12:34:54.154Z,20.61
2022-11-01T12:37:42.469Z,20.37
2022-11-01T12:40:22.349Z,20.15
2022-11-01T12:43:01.439Z,20.02
2022-11-01T12:45:41.949Z,19.97
2022-11-01T12:48:18.625Z,19.92
2022-11-01T12:50:54.921Z,19.84
2022-11-01T12:53:39.617Z,19.81
2022-11-01T12:56:12.144Z,19.76
2022-11-01T12:58:44.320Z,19.67
2022-11-01T13:01:28.780Z,19.63
2022-11-01T13:04:06.874Z,19.58
2022-11-01T13:07:20.314Z,19.49
2022-11-01T13:09:55.195Z,19.41
2022-11-01T13:12:48.979Z,19.30
2022-11-01T13:15:28.327Z,19.22
2022-11-01T13:18:09.105Z,19.24
2022-11-01T13:20:59.253Z,19.21
2022-11-01T13:23:39.200Z,19.25
2022-11-01T13:26:34.234Z,19.28
2022-11-01T13:29:20.074Z,19.33
2022-11-01T13:32:35.092Z,19.41
2022-11-01T13:35:34.837Z,19.44
2022-11-01T13:38:18.618Z,19.50
2022-11-01T13:41:21.307Z,19.56
2022-11-01T13:44:13.348Z,19.53
2022-11-01T13:46:51.095Z,19.44
2022-11-01T13:49:37.809Z,19.35
2022-11-01T13:52:12.766Z,19.32
2022-11-01T13:54:55.613Z,19.32
2022-11-01T13:57:27.786Z,19.32
2022-11-01T14:00:06.786Z,19.31
2022-11-01T14:02:59.265Z,19.33
2022-11-01T14:05:38.680Z,19.35
2022-11-01T14:08:26.658Z,19.33
2022-11-01T14:10:58.624Z,19.32
2022-11-01T14:13:36.969Z,19.25
2022-11-01T14:16:14.850Z,19.18
2022-11-01T14:19:08.424Z,19.09
2022-11-01T14:21:45.619Z,19.01
2022-11-01T14:24:32.036Z,18.90
2022-11-01T14:27:29.885Z,18.79
2022-11-01T14:30:05.178Z,18.73
2022-11-01T14:32:37.381Z,18.68
2022-11-01T14:35:11.984Z,18.66
2022-11-01T14:37:49.998Z,18.63
2022-11-01T14:40:27.798Z,18.61
2022-11-01T14:43:35.584Z,18.56
2022-11-01T14:46:13.413Z,18.52
2022-11-01T14:49:07.134Z,18.48
2022-11-01T14:51:51.864Z,18.41
2022-11-01T14:54:39.774Z,18.36
2022-11-01T14:57:25.989Z,18.33
2022-11-01T14:59:58.777Z,18.32
2022-11-01T15:02:31.859Z,18.31
2022-11-01T15:05:03.875Z,18.25
2022-11-01T15:07:40.519Z,18.20
2022-11-01T15:10:14.557Z,18.20
2022-11-01T15:12:52.800Z,18.18
2022-11-01T15:15:27.845Z,18.15
2022-11-01T15:18:03.369Z,18.11
2022-11-01T15:20:38.771Z,18.08
2022-11-01T15:23:15.101Z,18.06
2022-11-01T15:25:54.353Z,18.02
2022-11-01T15:28:33.615Z,18.00
2022-11-01T15:31:09.935Z,17.95
2022-11-01T15:34:04.826Z,17.91
2022-11-01T15:36:37.899Z,17.89
2022-11-01T15:39:19.259Z,17.85
2022-11-01T15:41:52.279Z,17.83
2022-11-01T15:44:29.713Z,17.79
2022-11-01T15:47:03.482Z,17.76
2022-11-01T15:49:47.773Z,17.71
2022-11-01T15:52:25.746Z,17.67
2022-11-01T15:55:06.860Z,17.64
2022-11-01T15:57:48.487Z,17.62
2022-11-01T16:00:25.404Z,17.59
2022-11-01T16:03:17.380Z,17.57
2022-11-01T16:05:56.993Z,17.55
2022-11-01T16:08:33.685Z,17.52
2022-11-01T16:11:06.081Z,17.51
2022-11-01T16:13:37.946Z,17.48
2022-11-01T16:16:10.880Z,17.43
2022-11-01T16:18:45.037Z,17.41
2022-11-01T16:21:19.467Z,17.39
2022-11-01T16:24:09.537Z,17.38
2022-11-01T16:27:00.404Z,17.32
2022-11-01T16:29:40.033Z,17.29
2022-11-01T16:32:23.519Z,17.27
2022-11-01T16:34:55.541Z,17.27
2022-11-01T16:37:29.616Z,17.26
2022-11-01T16:40:22.455Z,17.24
2022-11-01T16:42:55.397Z,17.23
2022-11-01T16:45:27.441Z,17.21
2022-11-01T16:47:59.296Z,17.21
2022-11-01T16:50:31.755Z,17.19
2022-11-01T16:53:09.401Z,17.14
2022-11-01T16:55:41.334Z,17.13
2022-11-01T16:58:18.148Z,17.08
2022-11-01T17:00:55.421Z,17.08
2022-11-01T17:03:29.124Z,17.04
2022-11-01T17:06:01.102Z,17.01
2022-11-01T17:08:33.887Z,16.98
2022-11-01T17:11:08.751Z,16.95
2022-11-01T17:13:41.372Z,16.94
2022-11-01T17:16:22.982Z,16.91
2022-11-01T17:18:57.721Z,16.89
2022-11-01T17:21:31.156Z,16.90
2022-11-01T17:24:04.608Z,16.88
2022-11-01T17:26:36.546Z,16.87
2022-11-01T17:29:08.667Z,16.84
2022-11-01T17:31:40.736Z,16.81
2022-11-01T17:34:12.850Z,16.76
2022-11-01T17:36:47.786Z,16.73
2022-11-01T17:39:20.173Z,16.71
2022-11-01T17:41:51.986Z,16.69
2022-11-01T17:44:23.940Z,16.65
2022-11-01T17:46:56.048Z,16.64
2022-11-01T17:49:28.408Z,16.63
2022-11-01T17:52:01.062Z,16.61
2022-11-01T17:54:33.111Z,16.58
2022-11-01T17:57:05.020Z,16.57
2022-11-01T17:59:38.831Z,16.58
2022-11-01T18:02:10.808Z,16.58
2022-11-01T18:04:43.076Z,16.56
2022-11-01T18:07:15.007Z,16.58
2022-11-01T18:09:47.325Z,16.58
2022-11-01T18:12:32.287Z,16.56
2022-11-01T18:15:17.206Z,16.54
2022-11-01T18:18:24.333Z,16.54
2022-11-01T18:21:18.370Z,16.53
2022-11-01T18:23:50.480Z,16.49
2022-11-01T18:26:24.347Z,16.46
2022-11-01T18:29:18.057Z,16.46
2022-11-01T18:32:26.559Z,16.43
2022-11-01T18:35:01.126Z,16.41
2022-11-01T18:37:49.535Z,16.39
2022-11-01T18:40:43.817Z,16.37
2022-11-01T18:43:17.141Z,16.39
2022-11-01T18:46:11.497Z,16.37
2022-11-01T18:48:41.318Z,16.38
2022-11-01T18:51:26.386Z,16.38
2022-11-01T18:54:10.211Z,16.39
2022-11-01T18:56:50.492Z,16.40
2022-11-01T18:59:31.922Z,16.40
2022-11-01T19:02:14.787Z,16.40
2022-11-01T19:04:47.554Z,16.41
2022-11-01T19:07:35.161Z,16.40
2022-11-01T19:10:22.107Z,16.37
2022-11-01T19:12:54.828Z,16.36
2022-11-01T19:15:28.916Z,16.34
2022-11-01T19:18:07.124Z,16.35
2022-11-01T19:20:45.095Z,16.33
2022-11-01T19:23:22.415Z,16.31
2022-11-01T19:25:54.232Z,16.31
2022-11-01T19:28:40.538Z,16.28
2022-11-01T19:31:30.488Z,16.25
2022-11-01T19:34:05.963Z,16.24
2022-11-01T19:36:41.258Z,16.22
2022-11-01T19:39:20.637Z,16.23
2022-11-01T19:41:54.353Z,16.22
2022-11-01T19:44:26.874Z,16.21
2022-11-01T19:47:25.486Z,16.21
2022-11-01T19:49:57.389Z,16.19
2022-11-01T19:52:35.509Z,16.19
2022-11-01T19:55:46.037Z,16.16
2022-11-01T19:58:27.936Z,16.17
2022-11-01T20:01:03.517Z,16.18
2022-11-01T20:03:46.643Z,16.18
2022-11-01T20:06:28.919Z,16.14
2022-11-01T20:09:06.773Z,16.13
2022-11-01T20:11:38.620Z,16.11
2022-11-01T20:14:10.523Z,16.11
2022-11-01T20:16:42.821Z,16.10
2022-11-01T20:19:17.533Z,16.08
2022-11-01T20:21:49.877Z,16.07
2022-11-01T20:24:21.639Z,16.06
2022-11-01T20:26:54.655Z,16.05
2022-11-01T20:29:26.689Z,16.03
2022-11-01T20:31:58.723Z,16.03
2022-11-01T20:34:30.649Z,16.03
2022-11-01T20:37:26.997Z,16.04
2022-11-01T20:39:54.260Z,16.03
2022-11-01T20:42:26.123Z,16.01
2022-11-01T20:44:57.968Z,16.00
2022-11-01T20:47:29.752Z,16.00
2022-11-01T20:50:04.045Z,15.99
2022-11-01T20:52:39.659Z,15.99
2022-11-01T20:55:12.682Z,15.97
2022-11-01T20:57:44.805Z,15.97
2022-11-01T21:00:18.391Z,15.94
2022-11-01T21:02:51.192Z,15.92
2022-11-01T21:05:28.024Z,15.92
2022-11-01T21:08:05.821Z,15.89
2022-11-01T21:10:42.281Z,15.89
2022-11-01T21:13:37.501Z,15.89
2022-11-01T21:16:24.103Z,15.84
2022-11-01T21:19:02.115Z,15.85
2022-11-01T21:21:47.003Z,15.87
2022-11-01T21:24:29.944Z,15.88
2022-11-01T21:27:10.963Z,15.88
2022-11-01T21:29:48.086Z,15.87
2022-11-01T21:32:34.634Z,15.88
2022-11-01T21:35:38.444Z,15.87
2022-11-01T21:38:31.225Z,15.88
2022-11-01T21:41:15.665Z,15.87
2022-11-01T21:43:47.639Z,15.83
2022-11-01T21:46:24.050Z,15.82
2022-11-01T21:48:58.768Z,15.80
2022-11-01T21:51:32.462Z,15.82
2022-11-01T21:54:04.823Z,15.81
2022-11-01T21:56:36.860Z,15.80
2022-11-01T21:59:08.622Z,15.78
2022-11-01T22:01:44.090Z,15.77
2022-11-01T22:04:16.945Z,15.77
2022-11-01T22:06:49.427Z,15.75
2022-11-01T22:09:21.455Z,15.76
2022-11-01T22:11:53.982Z,15.74
2022-11-01T22:14:25.994Z,15.72
2022-11-01T22:16:58.120Z,15.73
2022-11-01T22:19:30.353Z,15.70
2022-11-01T22:22:02.143Z,15.68
2022-11-01T22:24:34.024Z,15.63
2022-11-01T22:27:05.868Z,15.64
2022-11-01T22:29:37.669Z,15.62
2022-11-01T22:32:09.530Z,15.61
2022-11-01T22:34:41.409Z,15.59
2022-11-01T22:37:13.308Z,15.55
2022-11-01T22:39:47.020Z,15.54
2022-11-01T22:42:20.974Z,15.52
2022-11-01T22:44:53.114Z,15.50
2022-11-01T22:47:29.125Z,15.49
2022-11-01T22:50:02.431Z,15.48
2022-11-01T22:52:41.151Z,15.45
2022-11-01T22:55:13.032Z,15.45
2022-11-01T22:57:54.334Z,15.43
2022-11-01T23:00:39.568Z,15.41
2022-11-01T23:03:22.346Z,15.39
2022-11-01T23:05:55.952Z,15.38
2022-11-01T23:08:29.835Z,15.37
2022-11-01T23:11:02.155Z,15.39
2022-11-01T23:13:56.160Z,15.34
2022-11-01T23:16:30.336Z,15.31
2022-11-01T23:19:08.136Z,15.29
2022-11-01T23:21:40.044Z,15.27
2022-11-01T23:24:11.985Z,15.26
2022-11-01T23:26:43.828Z,15.26
2022-11-01T23:29:15.743Z,15.24
2022-11-01T23:31:47.533Z,15.23
2022-11-01T23:34:19.507Z,15.18
2022-11-01T23:36:51.418Z,15.15
2022-11-01T23:39:23.322Z,15.13
2022-11-01T23:41:55.179Z,15.12
2022-11-01T23:44:34.249Z,15.09
2022-11-01T23:47:27.792Z,15.07
2022-11-01T23:50:21.034Z,15.04
2022-11-01T23:52:54.771Z,15.03
2022-11-01T23:55:29.270Z,15.04
2022-11-01T23:58:04.007Z,15.04
